Latest Coastal Weather Observations for Gladstone

IDQ60701

Issued at 3:42 am EST Tuesday 23 December 2014 (issued every 10 minutes, with the page automatically refreshed every 10 minutes)

About coastal observations | Map of coastal stations | Coastal observations for QLD | Marine services | Other Formats
Station Details ID: 039123 Name: GLADSTONE RADAR Lat: -23.86 Lon: 151.26 Height: 74.5 m
Data from the previous 72 hours. | See also: Recent months at Gladstone
Date/Time
EST
Temp

°C
Wind Pressure Rain
since 9am
mm
Weather Cloud Vis
km
Sea
Height
m
Swell
Dir
 
Speed
knots
Gust
knots
hPa Trend Height
m
Period
s
Dir
23/03:30am 21.2 SSE 10 14 1013.5 - 0.0 - - - - - - -
23/03:00am 21.4 SSE 9 13 1013.4 - 0.0 - - - - - - -
23/02:30am 21.3 SSE 8 12 1013.5 - 0.0 - - - - - - -
23/02:00am 21.5 S 8 13 1013.8 - 0.0 - - - - - - -
23/01:30am 21.7 S 8 11 1014.0 - 0.0 - - - - - - -
23/01:00am 22.1 S 9 13 1014.3 - 0.0 - - - - - - -
23/12:30am 22.3 SSE 8 11 1014.6 - 0.0 - - - - - - -
23/12:00am 22.7 SSE 9 13 1014.8 - 0.0 - - - - - - -
 
Date/Time
EST
Temp

°C
Wind Pressure Rain
since 9am
mm
Weather Cloud Vis
km
Sea
Height
m
Swell
Dir
 
Speed
knots
Gust
knots
hPa Trend Height
m
Period
s
Dir
22/11:30pm 23.2 SE 11 16 1015.1 - 0.0 - - - - - - -
22/11:00pm 23.4 SE 12 19 1014.8 - 0.0 - - - - - - -
22/10:30pm 23.7 ESE 12 18 1015.0 - 0.0 - - - - - - -
22/10:00pm 23.9 SE 11 17 1015.0 - 0.0 - - - - - - -
22/09:30pm 24.4 ESE 12 20 1014.9 - 0.0 - - - - - - -
22/09:24pm 24.6 ESE 17 27 1014.9 - 0.0 - - - - - - -
22/09:00pm 24.7 ESE 18 26 1014.6 - 0.0 - - - - - - -
22/08:30pm 24.8 ESE 14 21 1014.7 - 0.0 - - - - - - -
22/08:00pm 24.8 ESE 13 19 1014.5 - 0.0 - - - - - - -
22/07:30pm 24.9 E 17 24 1014.3 - 0.0 - - - - - - -
22/07:00pm 24.9 E 17 24 1014.1 - 0.0 - - - - - - -
22/06:30pm 25.0 E 17 25 1013.7 - 0.0 - - - - - - -
22/06:00pm 25.4 E 17 25 1013.4 - 0.0 - - - - - - -
22/05:30pm 26.1 E 17 24 1013.1 - 0.0 - - - - - - -
22/05:00pm 26.5 E 17 23 1012.7 - 0.0 - - - - - - -
22/04:36pm 27.5 E 17 27 1012.7 - 0.0 - - - - - - -
22/04:30pm 27.2 E 19 27 1012.6 - 0.0 - - - - - - -
22/04:26pm 27.4 E 17 27 1012.6 - 0.0 - - - - - - -
22/04:00pm 28.1 E 18 25 1012.6 - 0.0 - - - - - - -
22/03:32pm 28.6 ENE 17 27 1012.6 - 0.0 - - - - - - -
22/03:30pm 28.9 ENE 17 23 1012.6 - 0.0 - - - - - - -
22/03:00pm 28.8 E 16 24 1013.0 - 0.0 - - - - - - -
22/02:30pm 29.2 E 17 23 1013.3 - 0.0 - - - - - - -
22/02:00pm 29.8 ENE 17 24 1013.6 - 0.0 - - - - - - -
22/01:30pm 29.8 ENE 15 21 1014.1 - 0.0 - - - - - - -
22/01:00pm 30.2 ENE 15 21 1014.3 - 0.0 - - - - - - -
22/12:30pm 30.6 ENE 15 21 1014.7 - 0.0 - - - - - - -
22/12:00pm 30.4 ENE 14 19 1014.9 - 0.0 - - - - - - -
22/11:30am 29.8 ENE 13 18 1015.4 - 0.0 - - - - - - -
22/11:00am 29.6 E 14 22 1015.5 - 0.0 - - - - - - -
22/10:30am 28.9 E 13 19 1015.6 - 0.0 - - - - - - -
22/10:00am 29.2 E 12 20 1015.9 - 0.0 - - - - - - -
22/09:30am 28.8 E 13 17 1015.7 - 0.0 - - - - - - -
22/09:00am 28.0 ESE 13 21 1015.7 - 0.0 - - - - - - -
22/08:30am 27.5 ESE 11 20 1015.8 - 0.0 - - - - - - -
22/08:00am 25.9 ESE 15 21 1015.7 - 0.0 - - - - - - -
22/07:30am 25.9 ESE 9 17 1015.6 - 0.0 - - - - - - -
22/07:00am 24.5 SSE 9 14 1015.5 - 0.0 - - - - - - -
22/06:30am 22.9 SE 11 16 1015.2 - 0.0 - - - - - - -
22/06:00am 23.2 SE 9 15 1014.7 - 0.0 - - - - - - -
22/05:30am 22.6 SSE 8 14 1014.5 - 0.0 - - - - - - -
22/05:00am 22.5 SSE 9 13 1014.0 - 0.0 - - - - - - -
22/04:30am 22.4 SE 9 12 1013.6 - 0.0 - - - - - - -
22/04:00am 22.5 SE 9 12 1013.3 - 0.0 - - - - - - -
22/03:30am 22.7 SSE 7 9 1013.4 - 0.0 - - - - - - -
22/03:00am 23.0 SSE 7 11 1013.5 - 0.0 - - - - - - -
22/02:30am 23.3 SSE 7 10 1013.7 - 0.0 - - - - - - -
22/02:00am 24.0 ESE 8 13 1013.9 - 0.0 - - - - - - -
22/01:30am 24.1 ESE 9 15 1014.4 - 0.0 - - - - - - -
22/01:00am 24.3 E 12 18 1014.7 - 0.0 - - - - - - -
22/12:30am 24.6 E 13 17 1015.2 - 0.0 - - - - - - -
22/12:00am 24.6 E 14 17 1015.6 - 0.0 - - - - - - -
 
Date/Time
EST
Temp

°C
Wind Pressure Rain
since 9am
mm
Weather Cloud Vis
km
Sea
Height
m
Swell
Dir
 
Speed
knots
Gust
knots
hPa Trend Height
m
Period
s
Dir
21/11:30pm 24.4 E 13 18 1015.4 - 0.0 - - - - - - -
21/11:00pm 24.6 E 12 17 1015.8 - 0.0 - - - - - - -
21/10:30pm 24.6 E 10 18 1016.1 - 0.0 - - - - - - -
21/10:00pm 24.8 E 13 18 1016.2 - 0.0 - - - - - - -
21/09:30pm 25.0 ENE 14 19 1016.1 - 0.0 - - - - - - -
21/09:00pm 24.9 E 14 20 1015.8 - 0.0 - - - - - - -
21/08:30pm 24.7 ENE 13 19 1015.5 - 0.0 - - - - - - -
21/08:00pm 24.7 E 15 20 1015.2 - 0.0 - - - - - - -
21/07:30pm 24.9 E 14 19 1015.2 - 0.0 - - - - - - -
21/07:00pm 25.2 ENE 14 21 1014.8 - 0.0 - - - - - - -
21/06:30pm 25.3 E 14 21 1014.3 - 0.0 - - - - - - -
21/06:00pm 25.8 E 14 20 1014.3 - 0.0 - - - - - - -
21/05:30pm 26.2 ENE 15 21 1013.8 - 0.0 - - - - - - -
21/05:00pm 27.0 E 14 18 1013.5 - 0.0 - - - - - - -
21/04:30pm 28.0 ENE 13 18 1013.4 - 0.0 - - - - - - -
21/04:00pm 28.3 ENE 12 17 1013.4 - 0.0 - - - - - - -
21/03:30pm 29.7 ENE 12 18 1013.6 - 0.0 - - - - - - -
21/03:00pm 29.3 ENE 12 16 1013.9 - 0.0 - - - - - - -
21/02:30pm 28.6 ENE 12 17 1014.0 - 0.0 - - - - - - -
21/02:00pm 29.5 ENE 11 17 1014.3 - 0.0 - - - - - - -
21/01:30pm 29.3 ENE 10 16 1014.8 - 0.0 - - - - - - -
21/01:00pm 29.4 ENE 10 14 1015.0 - 0.0 - - - - - - -
21/12:30pm 30.4 ENE 11 16 1015.3 - 0.0 - - - - - - -
21/12:00pm 30.3 ENE 11 15 1015.6 - 0.0 - - - - - - -
21/11:30am 30.8 ENE 11 15 1015.9 - 0.0 - - - - - - -
21/11:00am 30.4 E 12 17 1016.0 - 0.0 - - - - - - -
21/10:30am 29.0 E 12 17 1016.1 - 0.0 - - - - - - -
21/10:00am 30.0 E 11 16 1016.3 - 0.0 - - - - - - -
21/09:30am 28.5 E 12 19 1016.2 - 0.0 - - - - - - -
21/09:00am 29.1 E 10 15 1016.1 - 0.0 - - - - - - -
21/08:30am 29.1 ENE 12 16 1015.9 - 0.0 - - - - - - -
21/08:00am 28.5 E 10 15 1015.9 - 0.0 - - - - - - -
21/07:30am 27.5 E 11 16 1015.7 - 0.0 - - - - - - -
21/07:00am 25.6 E 12 17 1015.3 - 0.0 - - - - - - -
21/06:30am 25.7 E 10 16 1015.1 - 0.0 - - - - - - -
21/06:00am 24.8 E 12 16 1014.5 - 0.0 - - - - - - -
21/05:30am 24.3 E 12 16 1014.1 - 0.0 - - - - - - -
21/05:00am 24.2 E 11 15 1013.7 - 0.0 - - - - - - -
21/04:30am 24.1 E 11 15 1013.5 - 0.0 - - - - - - -
21/04:00am 24.2 E 11 14 1013.4 - 0.0 - - - - - - -
21/03:30am 24.3 E 11 14 1013.2 - 0.0 - - - - - - -
21/03:00am 24.2 E 11 15 1013.0 - 0.0 - - - - - - -
21/02:30am 24.1 ENE 12 17 1013.0 - 0.0 - - - - - - -
21/02:00am 24.2 E 12 16 1013.4 - 0.0 - - - - - - -
21/01:30am 24.6 E 13 18 1013.6 - 0.0 - - - - - - -
21/01:00am 24.6 E 12 16 1013.7 - 0.0 - - - - - - -
21/12:30am 24.5 ENE 12 18 1013.9 - 0.0 - - - - - - -
21/12:00am 24.7 E 11 16 1014.2 - 0.0 - - - - - - -
 
Date/Time
EST
Temp

°C
Wind Pressure Rain
since 9am
mm
Weather Cloud Vis
km
Sea
Height
m
Swell
Dir
 
Speed
knots
Gust
knots
hPa Trend Height
m
Period
s
Dir
20/11:30pm 24.9 E 13 17 1014.5 - 0.0 - - - - - - -
20/11:00pm 25.0 E 14 19 1014.7 - 0.0 - - - - - - -
20/10:30pm 25.2 ENE 13 18 1015.0 - 0.0 - - - - - - -
20/10:00pm 25.2 ENE 13 19 1014.9 - 0.0 - - - - - - -
20/09:30pm 24.9 E 13 17 1014.7 - 0.0 - - - - - - -
20/09:00pm 25.0 E 13 19 1014.4 - 0.0 - - - - - - -
20/08:30pm 25.0 E 13 17 1014.0 - 0.0 - - - - - - -
20/08:00pm 25.2 E 13 18 1013.8 - 0.0 - - - - - - -
20/07:30pm 25.3 E 12 19 1013.5 - 0.0 - - - - - - -
20/07:00pm 25.3 E 14 19 1013.0 - 0.0 - - - - - - -
20/06:30pm 25.5 E 11 17 1012.7 - 0.0 - - - - - - -
20/06:00pm 25.7 E 13 17 1012.2 - 0.0 - - - - - - -
20/05:30pm 26.8 E 12 17 1011.9 - 0.0 - - - - - - -
20/05:00pm 27.5 E 11 19 1011.4 - 0.0 - - - - - - -
20/04:30pm 26.9 E 13 20 1011.0 - 0.0 - - - - - - -
20/04:00pm 28.8 ENE 13 18 1011.2 - 0.0 - - - - - - -
20/03:30pm 29.3 ENE 13 18 1011.2 - 0.0 - - - - - - -
20/03:00pm 30.0 ENE 12 19 1011.3 - 0.0 - - - - - - -
20/02:30pm 29.9 ENE 12 17 1011.7 - 0.0 - - - - - - -
20/02:00pm 30.6 ENE 12 19 1012.0 - 0.0 - - - - - - -
20/01:30pm 30.6 ENE 14 19 1012.1 - 0.0 - - - - - - -
20/01:00pm 30.4 ENE 15 20 1012.4 - 0.0 - - - - - - -
20/12:30pm 30.7 ENE 15 20 1012.8 - 0.0 - - - - - - -
20/12:00pm 30.5 ENE 13 18 1013.0 - 0.0 - - - - - - -
20/11:30am 31.1 ENE 13 17 1013.5 - 0.0 - - - - - - -
20/11:00am 31.2 ENE 12 17 1013.7 - 0.0 - - - - - - -
20/10:30am 30.4 E 12 17 1013.9 - 0.0 - - - - - - -
20/10:00am 30.2 E 11 16 1014.0 - 0.0 - - - - - - -
20/09:30am 29.8 E 9 14 1014.0 - 0.0 - - - - - - -
20/09:00am 28.7 E 11 16 1013.9 - 0.2 - - - - - - -
20/08:30am 27.4 ESE 11 15 1013.8 - 0.2 - - - - - - -
20/08:00am 28.0 ENE 7 12 1013.7 - 0.2 - - - - - - -
20/07:30am 27.1 SE 1 5 1013.5 - 0.2 - - - - - - -
20/07:00am 24.8 SSW 3 6 1013.2 - 0.2 - - - - - - -
20/06:30am 23.6 WSW 4 8 1012.8 - 0.2 - - - - - - -
20/06:00am 22.7 SW 6 9 1012.4 - 0.2 - - - - - - -
20/05:30am 22.5 WSW 6 10 1011.9 - 0.2 - - - - - - -
20/05:00am 22.2 WSW 6 10 1011.3 - 0.2 - - - - - - -
20/04:30am 21.9 WSW 5 10 1010.8 - 0.2 - - - - - - -
20/04:00am 22.4 WSW 5 7 1010.5 - 0.2 - - - - - - -

Other Formats:

Comma delimited format used in spreadsheet applications
http://www.bom.gov.au/fwo/IDQ60701/IDQ60701.94380.axf

JavaScript Object Notation format (JSON) in row-major order
http://www.bom.gov.au/fwo/IDQ60701/IDQ60701.94380.json